Time;durP1;ratioP1;P1;durP2;ratioP2;P2;SDS_P1;SDS_P2;PMS_P1;PMS_P2;Temp;Humidity;BMP_temperature;BMP_pressure;BME280_temperature;BME280_humidity;BME280_pressure;Samples;Min_cycle;Max_cycle;Signal;HPM_P1;HPM_P2
2023/01/27 00:00:12;;;;;;;25.60;8.00;;;;;;;1.28;100.00;101658.19;5016098;28;20538;-66
2023/01/27 00:02:39;;;;;;;33.33;8.07;;;;;;;1.33;100.00;101650.38;5016083;28;20531;-66
2023/01/27 00:05:06;;;;;;;26.57;6.73;;;;;;;1.29;100.00;101661.69;5016108;28;20956;-66
2023/01/27 00:07:33;;;;;;;31.83;8.50;;;;;;;1.29;100.00;101659.03;5015996;28;20531;-66
2023/01/27 00:09:59;;;;;;;22.97;6.97;;;;;;;1.35;100.00;101660.84;5016165;28;20444;-66
2023/01/27 00:15:14;;;;;;;18.10;6.17;;;;;;;1.30;100.00;101656.13;5015959;28;20827;-66
2023/01/27 00:17:41;;;;;;;23.00;6.87;;;;;;;1.38;100.00;101657.75;5015799;28;20503;-66
2023/01/27 00:20:09;;;;;;;20.67;6.27;;;;;;;1.38;100.00;101653.22;5015997;28;20542;-66
2023/01/27 00:25:20;;;;;;;25.63;7.83;;;;;;;1.39;100.00;101651.38;5015882;28;20404;-66
2023/01/27 00:27:47;;;;;;;27.80;7.70;;;;;;;1.42;100.00;101658.97;5015544;28;20945;-66
2023/01/27 00:30:16;;;;;;;24.40;6.60;;;;;;;1.35;100.00;101655.50;5015455;28;20480;-66
2023/01/27 00:35:28;;;;;;;17.33;6.87;;;;;;;1.38;100.00;101657.75;5015697;28;21037;-66
2023/01/27 00:37:55;;;;;;;22.33;7.10;;;;;;;1.42;100.00;101658.97;5015582;28;20492;-66
2023/01/27 00:40:21;;;;;;;29.93;7.27;;;;;;;1.47;100.00;101667.16;5015294;28;20503;-66
2023/01/27 00:42:48;;;;;;;19.13;6.97;;;;;;;1.49;100.00;101662.41;5015627;28;20523;-66
2023/01/27 00:48:08;;;;;;;22.10;8.20;;;;;;;1.44;100.00;101667.56;4979991;28;20444;-66
2023/01/27 00:50:35;;;;;;;19.90;8.17;;;;;;;1.41;100.00;101660.78;5015408;28;20503;-66
2023/01/27 00:53:02;;;;;;;31.07;8.53;;;;;;;1.37;100.00;101664.91;5015420;28;20454;-66
2023/01/27 00:55:29;;;;;;;21.93;7.30;;;;;;;1.44;100.00;101662.22;5015417;28;20451;-66
2023/01/27 00:57:55;;;;;;;19.93;6.50;;;;;;;1.48;100.00;101658.91;5015302;28;20492;-66
2023/01/27 01:00:24;;;;;;;24.03;6.77;;;;;;;1.45;100.00;101655.84;5015260;28;20468;-66
2023/01/27 01:02:50;;;;;;;31.03;8.20;;;;;;;1.49;100.00;101665.06;5015303;28;20542;-66
2023/01/27 01:05:17;;;;;;;18.87;5.93;;;;;;;1.48;100.00;101666.09;5014901;28;20444;-66
2023/01/27 01:07:43;;;;;;;22.43;7.70;;;;;;;1.49;100.00;101665.88;5014758;28;20451;-66
2023/01/27 01:10:11;;;;;;;29.53;7.90;;;;;;;1.39;100.00;101678.06;5014789;28;21020;-66
2023/01/27 01:12:37;;;;;;;20.50;7.67;;;;;;;1.41;100.00;101668.78;5015112;28;20444;-66
2023/01/27 01:15:05;;;;;;;21.90;7.63;;;;;;;1.34;100.00;101677.88;5015022;28;20447;-67
2023/01/27 01:17:33;;;;;;;17.73;5.23;;;;;;;1.38;100.00;101673.78;5014636;28;20536;-66
2023/01/27 01:19:59;;;;;;;19.40;6.77;;;;;;;1.48;100.00;101671.44;5014864;28;20809;-66
2023/01/27 01:22:26;;;;;;;20.10;5.60;;;;;;;1.45;100.00;101674.53;5014878;28;20480;-66
2023/01/27 01:24:52;;;;;;;19.43;6.10;;;;;;;1.51;100.00;101679.84;5014564;28;20535;-66
2023/01/27 01:27:19;;;;;;;24.67;7.23;;;;;;;1.55;100.00;101680.25;5014823;28;20527;-65
2023/01/27 01:29:45;;;;;;;18.63;5.70;;;;;;;1.57;100.00;101686.19;5014713;28;20440;-66
2023/01/27 01:32:12;;;;;;;22.30;7.00;;;;;;;1.57;100.00;101690.69;5014374;28;21044;-66
2023/01/27 01:34:40;;;;;;;26.17;7.53;;;;;;;1.55;100.00;101682.91;5014359;28;20475;-66
2023/01/27 01:37:07;;;;;;;17.40;7.10;;;;;;;1.52;100.00;101680.66;5014328;28;20451;-66
2023/01/27 01:39:33;;;;;;;13.83;5.47;;;;;;;1.55;100.00;101687.41;5014153;28;20558;-65
2023/01/27 01:42:00;;;;;;;20.37;6.30;;;;;;;1.56;100.00;101689.06;5014079;28;20538;-65
2023/01/27 01:44:29;;;;;;;21.50;6.33;;;;;;;1.56;100.00;101691.75;5014129;28;20444;-66
2023/01/27 01:46:55;;;;;;;15.23;5.60;;;;;;;1.56;100.00;101687.22;5014389;28;20456;-66
2023/01/27 01:49:25;;;;;;;19.00;6.27;;;;;;;1.56;100.00;101691.75;5014415;28;20527;-65
2023/01/27 01:51:56;;;;;;;18.50;5.90;;;;;;;1.57;100.00;101691.53;5013921;28;20961;-65
2023/01/27 01:54:27;;;;;;;16.60;6.37;;;;;;;1.52;100.00;101699.34;5014253;28;20436;-65
2023/01/27 01:56:57;;;;;;;26.67;7.30;;;;;;;1.62;100.00;101696.22;5014159;28;20516;-66
2023/01/27 01:59:28;;;;;;;22.00;6.17;;;;;;;1.62;100.00;101693.56;5013651;28;20487;-66
2023/01/27 02:01:58;;;;;;;18.17;6.00;;;;;;;1.67;100.00;101689.19;5014111;28;20539;-66
2023/01/27 02:04:27;;;;;;;16.10;5.87;;;;;;;1.62;100.00;101696.22;5014151;28;20551;-66
2023/01/27 02:07:02;;;;;;;25.53;6.60;;;;;;;1.70;100.00;101691.44;5014097;28;20532;-66
2023/01/27 02:09:29;;;;;;;16.97;5.73;;;;;;;1.73;100.00;101691.03;5014157;28;20450;-66
2023/01/27 02:11:57;;;;;;;17.90;5.90;;;;;;;1.80;100.00;101692.81;5013633;28;20898;-65
2023/01/27 02:14:24;;;;;;;20.43;6.60;;;;;;;1.73;100.00;101691.03;5014000;28;20824;-65
2023/01/27 02:16:50;;;;;;;16.67;5.07;;;;;;;1.67;100.00;101689.19;5013906;28;20448;-65
2023/01/27 02:19:24;;;;;;;14.90;5.30;;;;;;;1.72;100.00;101692.03;5013805;28;20480;-65
2023/01/27 02:21:55;;;;;;;13.87;4.90;;;;;;;1.72;100.00;101685.88;5013769;28;20478;-66
2023/01/27 02:24:29;;;;;;;18.20;5.10;;;;;;;1.62;100.00;101686.34;5013867;28;20810;-65
2023/01/27 02:26:57;;;;;;;17.50;5.90;;;;;;;1.68;100.00;101685.50;5013478;28;20458;-66
2023/01/27 02:29:24;;;;;;;26.93;6.27;;;;;;;1.65;100.00;101696.63;5013416;28;20941;-65
2023/01/27 02:31:51;;;;;;;17.10;5.87;;;;;;;1.59;100.00;101693.97;5013613;28;20499;-65
2023/01/27 02:34:23;;;;;;;18.90;5.80;;;;;;;1.61;100.00;101694.59;5013742;28;20523;-66
2023/01/27 02:36:54;;;;;;;20.73;4.97;;;;;;;1.59;100.00;101692.13;5013673;28;20432;-65
2023/01/27 02:39:26;;;;;;;16.63;5.43;;;;;;;1.55;100.00;101690.94;5013277;28;20476;-66
2023/01/27 02:41:56;;;;;;;16.20;4.87;;;;;;;1.65;100.00;101693.94;5013251;28;20495;-67
2023/01/27 02:44:24;;;;;;;16.30;5.40;;;;;;;1.70;100.00;101702.13;5013592;28;20431;-65
2023/01/27 02:46:51;;;;;;;17.07;5.90;;;;;;;1.63;100.00;101704.00;5046159;22;20525;-67
2023/01/27 02:49:17;;;;;;;19.67;5.03;;;;;;;1.67;100.00;101705.22;5053004;28;20470;-68
2023/01/27 02:51:44;;;;;;;15.10;5.03;;;;;;;1.59;100.00;101704.66;5052766;28;20940;-68
2023/01/27 02:54:11;;;;;;;15.93;5.40;;;;;;;1.56;100.00;101703.25;5052903;28;20438;-67
2023/01/27 02:56:37;;;;;;;18.93;5.80;;;;;;;1.61;100.00;101715.94;5052994;28;20572;-68
2023/01/27 02:59:04;;;;;;;13.97;5.40;;;;;;;1.56;100.00;101713.91;5052905;28;20573;-67
2023/01/27 03:01:32;;;;;;;9.93;4.07;;;;;;;1.54;100.00;101717.81;5053025;28;20473;-67
2023/01/27 03:03:58;;;;;;;14.87;5.67;;;;;;;1.60;100.00;101717.00;5053031;28;20442;-68
2023/01/27 03:06:25;;;;;;;17.73;4.57;;;;;;;1.64;100.00;101710.16;5052655;28;20545;-67
2023/01/27 03:08:52;;;;;;;16.97;5.13;;;;;;;1.65;100.00;101717.97;5053248;28;20478;-68
2023/01/27 03:12:18;;;;;;;17.00;5.07;;;;;;;1.64;100.00;101702.16;5056833;28;20442;-68
2023/01/27 03:14:06;;;;;;;16.57;5.53;;;;;;;1.67;100.00;101707.06;5056552;28;20815;-68
2023/01/27 03:19:19;;;;;;;14.77;4.97;;;;;;;1.73;100.00;101708.91;5056852;28;20465;-67
2023/01/27 03:21:49;;;;;;;15.00;5.87;;;;;;;1.82;100.00;101704.94;5056562;28;20444;-68
2023/01/27 03:24:16;;;;;;;18.67;5.73;;;;;;;1.76;100.00;101700.44;5056579;28;20529;-67
2023/01/27 03:26:43;;;;;;;11.00;4.17;;;;;;;1.67;100.00;101702.53;5056688;28;20469;-69
2023/01/27 03:31:55;;;;;;;16.33;6.10;;;;;;;1.78;100.00;101717.09;5056495;28;20545;-68
2023/01/27 03:34:21;;;;;;;12.63;4.40;;;;;;;1.81;100.00;101713.16;5056339;28;20452;-67
2023/01/27 03:47:45;;;;;;;12.60;4.80;;;;;;;1.93;100.00;101719.44;5056046;28;20465;-68
2023/01/27 03:50:17;;;;;;;12.80;4.47;;;;;;;1.89;100.00;101720.91;5056381;28;20476;-67
2023/01/27 03:53:01;;;;;;;17.90;5.73;;;;;;;1.89;100.00;101719.06;5056149;28;20900;-68
2023/01/27 03:55:28;;;;;;;17.50;6.07;;;;;;;1.94;100.00;101718.41;5056445;28;20484;-67
2023/01/27 03:57:55;;;;;;;12.30;4.43;;;;;;;1.98;100.00;101711.59;5055848;28;20462;-67
2023/01/27 04:00:22;;;;;;;14.80;4.70;;;;;;;1.92;100.00;101717.81;5056077;28;20482;-67
2023/01/27 04:08:18;;;;;;;18.90;6.07;;;;;;;1.78;100.00;101711.75;5055997;28;20410;-67
2023/01/27 04:11:53;;;;;;;9.00;3.80;;;;;;;1.74;100.00;101714.03;5055945;28;20438;-68
2023/01/27 04:13:30;;;;;;;19.40;5.03;;;;;;;1.65;100.00;101707.28;5055369;28;20438;-68
2023/01/27 04:15:57;;;;;;;25.20;6.03;;;;;;;1.65;100.00;101712.63;5055575;28;20454;-67
2023/01/27 04:18:25;;;;;;;24.63;6.67;;;;;;;1.64;100.00;101708.34;5055796;28;20207;-67
2023/01/27 04:20:51;;;;;;;14.87;5.37;;;;;;;1.72;100.00;101713.41;5054975;28;20477;-67
2023/01/27 04:23:18;;;;;;;20.17;6.00;;;;;;;1.71;100.00;101709.09;5055749;28;20481;-67
2023/01/27 04:25:46;;;;;;;14.93;4.60;;;;;;;1.73;100.00;101714.25;5055316;28;20955;-69
2023/01/27 04:28:12;;;;;;;20.90;4.80;;;;;;;1.62;100.00;101710.38;5055300;28;20528;-68
2023/01/27 04:30:39;;;;;;;14.93;4.80;;;;;;;1.62;100.00;101709.56;5055505;28;20440;-68
2023/01/27 04:33:09;;;;;;;12.50;4.60;;;;;;;1.63;100.00;101717.34;5055457;28;20468;-67
2023/01/27 04:35:37;;;;;;;18.63;4.50;;;;;;;1.65;100.00;101715.31;5055477;28;20852;-69
2023/01/27 04:38:03;;;;;;;17.20;5.50;;;;;;;1.58;100.00;101716.38;5055364;28;20462;-68
2023/01/27 04:40:30;;;;;;;16.53;5.70;;;;;;;1.67;100.00;101713.22;5055221;28;20496;-67
2023/01/27 04:42:57;;;;;;;17.90;6.50;;;;;;;1.72;100.00;101707.25;5055295;28;20447;-66
2023/01/27 04:45:23;;;;;;;12.57;4.43;;;;;;;1.65;100.00;101719.84;5055273;28;20449;-66
2023/01/27 04:47:50;;;;;;;19.73;5.37;;;;;;;1.69;100.00;101715.72;5054904;28;20573;-67
2023/01/27 04:50:17;;;;;;;22.93;4.70;;;;;;;1.80;100.00;101731.03;5055640;28;20826;-67
2023/01/27 04:52:45;;;;;;;14.50;5.50;;;;;;;1.75;100.00;101723.66;5054954;28;20504;-68
2023/01/27 04:55:12;;;;;;;15.97;4.40;;;;;;;1.80;100.00;101727.53;5055204;28;20497;-66
2023/01/27 04:57:38;;;;;;;16.77;5.13;;;;;;;1.92;100.00;101728.50;5055210;28;20462;-68
2023/01/27 05:00:06;;;;;;;17.53;5.50;;;;;;;1.94;100.00;101721.09;5054796;28;21038;-66
2023/01/27 05:02:33;;;;;;;15.40;5.20;;;;;;;1.87;100.00;101725.66;5054729;28;20962;-66
2023/01/27 05:05:03;;;;;;;19.67;5.90;;;;;;;1.95;100.00;101725.41;5055098;28;20442;-68
2023/01/27 05:07:29;;;;;;;19.17;5.87;;;;;;;1.99;100.00;101730.13;5055075;28;20470;-66
2023/01/27 05:09:57;;;;;;;15.77;5.57;;;;;;;1.97;100.00;101734.84;5055155;28;20444;-66
2023/01/27 05:12:24;;;;;;;14.90;5.50;;;;;;;1.94;100.00;101739.78;5054763;28;20449;-66
2023/01/27 05:14:50;;;;;;;17.30;6.17;;;;;;;2.00;100.00;101738.94;5054412;28;20943;-66
2023/01/27 05:17:17;;;;;;;16.93;5.60;;;;;;;1.96;100.00;101751.09;5054657;28;20897;-66
2023/01/27 05:19:44;;;;;;;15.20;5.00;;;;;;;1.98;100.00;101754.34;5054267;28;21007;-67
2023/01/27 05:22:11;;;;;;;16.27;4.90;;;;;;;1.97;100.00;101750.06;5054617;28;20478;-66
2023/01/27 05:24:38;;;;;;;13.00;4.20;;;;;;;1.95;100.00;101752.94;5054109;28;20978;-68
2023/01/27 05:27:05;;;;;;;18.50;6.30;;;;;;;1.92;100.00;101765.91;5054243;28;20858;-66
2023/01/27 05:29:32;;;;;;;12.20;4.90;;;;;;;1.85;100.00;101762.44;5054154;28;20482;-66
2023/01/27 05:31:59;;;;;;;16.20;5.30;;;;;;;1.93;100.00;101757.66;5053400;28;20545;-66
2023/01/27 05:34:25;;;;;;;15.30;5.33;;;;;;;2.00;100.00;101766.47;5053578;28;20491;-66
2023/01/27 05:36:52;;;;;;;13.60;4.40;;;;;;;2.00;100.00;101765.66;5054315;28;20544;-66
2023/01/27 05:39:18;;;;;;;22.53;5.37;;;;;;;1.98;100.00;101763.19;5054225;28;20497;-66
2023/01/27 05:41:45;;;;;;;9.17;3.23;;;;;;;2.08;100.00;101775.25;5053937;28;20450;-67
2023/01/27 05:44:13;;;;;;;19.60;4.87;;;;;;;2.01;100.00;101776.13;5054206;28;20767;-69
2023/01/27 05:46:41;;;;;;;13.20;4.30;;;;;;;2.09;100.00;101772.38;5053748;28;20484;-67
2023/01/27 05:49:08;;;;;;;17.97;5.00;;;;;;;2.08;100.00;101776.09;5053822;28;20969;-67
2023/01/27 05:51:38;;;;;;;14.97;5.63;;;;;;;2.01;100.00;101769.97;5054108;28;20442;-65
2023/01/27 05:54:05;;;;;;;16.53;4.90;;;;;;;1.94;100.00;101775.34;5054009;28;20454;-66
2023/01/27 05:56:33;;;;;;;12.33;4.60;;;;;;;1.86;100.00;101769.41;5054027;28;20463;-67
2023/01/27 05:59:00;;;;;;;14.67;4.57;;;;;;;1.89;100.00;101777.81;5053895;28;20442;-66
2023/01/27 06:01:30;;;;;;;12.60;4.50;;;;;;;1.89;100.00;101782.34;5054098;28;20481;-65
2023/01/27 06:03:57;;;;;;;14.23;4.50;;;;;;;1.93;100.00;101775.56;5054195;28;20442;-65
2023/01/27 06:06:26;;;;;;;19.37;5.33;;;;;;;1.99;100.00;101775.53;5053309;28;21002;-66
2023/01/27 06:08:53;;;;;;;20.63;4.80;;;;;;;2.00;100.00;101779.84;5053677;28;20865;-66
2023/01/27 06:11:22;;;;;;;12.50;4.30;;;;;;;1.97;100.00;101771.44;5053654;28;20441;-66
2023/01/27 06:13:49;;;;;;;13.03;4.70;;;;;;;1.92;100.00;101773.94;5053643;28;20448;-67
2023/01/27 06:16:18;;;;;;;10.83;3.67;;;;;;;1.92;100.00;101773.94;5053270;28;20466;-66
2023/01/27 06:18:47;;;;;;;12.47;4.40;;;;;;;1.92;100.00;101773.94;5053273;28;20901;-67
2023/01/27 06:21:14;;;;;;;11.53;4.60;;;;;;;1.86;100.00;101769.41;5053151;28;20929;-66
2023/01/27 06:23:41;;;;;;;12.60;4.27;;;;;;;1.89;100.00;101779.69;5053486;28;20446;-67
2023/01/27 06:26:12;;;;;;;19.53;5.27;;;;;;;1.83;100.00;101783.22;5053084;28;20505;-65
2023/01/27 06:28:39;;;;;;;17.37;5.23;;;;;;;1.86;100.00;101780.09;5053384;28;21010;-68
2023/01/27 06:31:07;;;;;;;11.33;4.03;;;;;;;1.89;100.00;101779.69;5053105;28;20473;-66
2023/01/27 06:33:34;;;;;;;11.43;3.60;;;;;;;1.90;100.00;101782.13;5053281;28;20478;-66
2023/01/27 06:36:04;;;;;;;14.77;4.83;;;;;;;1.91;100.00;101788.31;5053180;28;20458;-65
2023/01/27 06:38:30;;;;;;;12.10;3.70;;;;;;;1.82;100.00;101790.41;5052892;28;20537;-66
2023/01/27 06:40:57;;;;;;;13.53;4.00;;;;;;;1.80;100.00;101794.31;5052894;28;20492;-66
2023/01/27 06:43:23;;;;;;;14.13;3.53;;;;;;;1.75;100.00;101793.09;5052648;28;20442;-66
2023/01/27 06:45:50;;;;;;;9.30;3.77;;;;;;;1.89;100.00;101793.03;5053148;28;20443;-68
2023/01/27 06:48:17;;;;;;;13.30;3.37;;;;;;;1.88;100.00;101794.09;5053241;28;20449;-66
2023/01/27 06:50:43;;;;;;;13.70;4.50;;;;;;;1.90;100.00;101789.34;5052725;28;20474;-68
2023/01/27 06:53:12;;;;;;;12.47;3.77;;;;;;;1.94;100.00;101794.03;5052838;28;20441;-67
2023/01/27 06:55:40;;;;;;;10.20;3.10;;;;;;;1.98;100.00;101797.09;5053014;28;20441;-68
2023/01/27 06:58:08;;;;;;;13.63;3.60;;;;;;;1.94;100.00;101793.22;5052975;28;20442;-67
2023/01/27 07:00:35;;;;;;;9.83;3.10;;;;;;;1.98;100.00;101797.09;5053049;28;20482;-68
2023/01/27 07:03:01;;;;;;;12.17;3.97;;;;;;;2.04;100.00;101804.28;5052958;28;20500;-70
2023/01/27 07:05:28;;;;;;;12.10;3.67;;;;;;;2.05;100.00;101802.44;5052661;28;20537;-68
2023/01/27 07:07:54;;;;;;;9.40;3.50;;;;;;;2.08;100.00;101810.00;5052581;28;20501;-70
2023/01/27 07:10:23;;;;;;;11.80;3.70;;;;;;;2.11;100.00;101813.06;5052838;28;20446;-68
2023/01/27 07:12:49;;;;;;;11.83;3.53;;;;;;;2.14;100.00;101812.66;5052912;28;20442;-68
2023/01/27 07:15:16;;;;;;;10.27;3.17;;;;;;;2.15;100.00;101818.81;5052791;28;20452;-67
2023/01/27 07:17:42;;;;;;;13.83;3.70;;;;;;;2.07;100.00;101827.88;5052737;28;20462;-67
2023/01/27 07:20:13;;;;;;;7.60;2.70;;;;;;;2.14;100.00;101822.53;5052766;28;20599;-68
2023/01/27 07:22:39;;;;;;;13.57;2.73;;;;;;;2.17;100.00;101816.72;5052465;28;20496;-67
2023/01/27 07:25:07;;;;;;;10.03;3.40;;;;;;;2.18;100.00;101824.53;5052757;28;20533;-67
2023/01/27 07:27:35;;;;;;;9.47;2.57;;;;;;;2.22;100.00;101823.09;5052314;28;20470;-68
2023/01/27 07:30:01;;;;;;;9.33;3.70;;;;;;;2.20;100.00;101827.81;5052450;28;20533;-69
2023/01/27 07:32:28;;;;;;;10.33;3.10;;;;;;;2.16;100.00;101826.59;5052550;28;20446;-68
2023/01/27 07:34:54;;;;;;;8.27;2.83;;;;;;;2.16;100.00;101826.59;5052557;28;20444;-67
2023/01/27 07:37:21;;;;;;;9.10;2.53;;;;;;;2.16;100.00;101831.94;5052549;28;20525;-68
2023/01/27 07:39:47;;;;;;;11.70;3.30;;;;;;;2.19;100.00;101815.50;5052168;28;21003;-68
2023/01/27 07:42:14;;;;;;;16.27;3.47;;;;;;;2.21;100.00;101824.13;5052865;28;20492;-68
2023/01/27 07:44:42;;;;;;;7.47;2.53;;;;;;;2.20;100.00;101833.16;5051921;28;20442;-69
2023/01/27 07:47:08;;;;;;;9.03;3.43;;;;;;;2.25;100.00;101830.66;5052325;28;20476;-68
2023/01/27 07:49:35;;;;;;;8.30;3.10;;;;;;;2.27;100.00;101835.81;5052583;28;20445;-67
2023/01/27 07:52:02;;;;;;;12.97;4.23;;;;;;;2.27;100.00;101835.81;5052546;28;20449;-68
2023/01/27 07:54:28;;;;;;;10.13;3.57;;;;;;;2.38;100.00;101835.09;5052295;28;20453;-68
2023/01/27 07:56:55;;;;;;;12.07;4.40;;;;;;;2.50;100.00;101844.09;5054632;28;20484;-73
2023/01/27 07:59:21;;;;;;;9.20;3.03;;;;;;;2.57;100.00;101838.69;5055903;28;20482;-71
2023/01/27 08:01:49;;;;;;;9.67;3.60;;;;;;;2.66;100.00;101839.25;5055623;28;20855;-67
2023/01/27 08:04:16;;;;;;;11.23;3.57;;;;;;;2.76;100.00;101847.59;5056055;28;20446;-68
2023/01/27 08:06:43;;;;;;;11.27;3.40;;;;;;;2.79;100.00;101847.19;5055981;28;20979;-68
2023/01/27 08:09:09;;;;;;;13.57;3.87;;;;;;;2.86;100.00;101837.22;5056017;28;20481;-67
2023/01/27 08:11:36;;;;;;;9.70;3.10;;;;;;;2.93;100.00;101845.22;5055591;28;20434;-69
2023/01/27 08:14:02;;;;;;;8.00;3.37;;;;;;;2.94;100.00;101841.50;5055889;28;20537;-66
2023/01/27 08:16:29;;;;;;;9.07;3.23;;;;;;;2.97;100.00;101849.09;5055812;28;20466;-67
2023/01/27 08:18:57;;;;;;;9.20;3.30;;;;;;;2.95;100.00;101849.28;5055401;28;21032;-67
2023/01/27 08:21:26;;;;;;;9.37;3.37;;;;;;;2.99;100.00;101860.38;5055556;28;20485;-67
2023/01/27 08:23:54;;;;;;;11.93;4.00;;;;;;;3.00;100.00;101851.31;5055687;28;20562;-67
2023/01/27 08:26:20;;;;;;;9.60;3.30;;;;;;;3.11;100.00;101855.97;5055597;28;20508;-66
2023/01/27 08:28:47;;;;;;;9.93;3.23;;;;;;;3.14;100.00;101857.38;5055660;28;20534;-68
2023/01/27 08:31:15;;;;;;;9.27;3.27;;;;;;;3.15;100.00;101854.50;5055562;28;20860;-66
2023/01/27 08:33:44;;;;;;;11.27;3.60;;;;;;;3.13;100.00;101853.88;5055269;28;20477;-68
2023/01/27 08:36:14;;;;;;;8.40;3.50;;;;;;;3.15;100.00;101861.69;5055493;28;20477;-65
2023/01/27 08:38:42;;;;;;;10.73;3.30;;;;;;;3.26;100.00;101867.13;5055463;28;20521;-67
2023/01/27 08:41:10;;;;;;;10.07;3.10;;;;;;;3.33;100.00;101859.06;5055366;28;20478;-67
2023/01/27 08:43:37;;;;;;;9.13;2.90;;;;;;;3.40;100.00;101864.31;5055357;28;20801;-67
2023/01/27 08:46:05;;;;;;;10.73;3.33;;;;;;;3.42;100.00;101865.75;5054774;28;20523;-67
2023/01/27 08:48:32;;;;;;;8.10;3.10;;;;;;;3.50;100.00;101861.97;5055341;28;20524;-69
2023/01/27 08:51:00;;;;;;;11.93;3.70;;;;;;;3.49;100.00;101866.50;5054878;28;20446;-69
2023/01/27 08:53:29;;;;;;;12.60;3.23;;;;;;;3.50;100.00;101872.69;5055259;28;20446;-67
2023/01/27 08:55:57;;;;;;;12.37;3.20;;;;;;;3.58;100.00;101871.56;5055068;28;20438;-68
2023/01/27 08:58:24;;;;;;;13.97;3.27;;;;;;;3.62;100.00;101878.13;5055118;28;20442;-69
2023/01/27 09:00:51;;;;;;;8.00;2.97;;;;;;;3.59;100.00;101871.34;5054946;28;20585;-69
2023/01/27 09:03:18;;;;;;;12.10;3.30;;;;;;;3.62;100.00;101876.25;5054694;28;20932;-68
2023/01/27 09:05:44;;;;;;;11.60;3.90;;;;;;;3.62;100.00;101878.94;5054895;28;20449;-69
2023/01/27 09:08:11;;;;;;;8.93;3.47;;;;;;;3.73;100.00;101878.19;5054368;28;20958;-69
2023/01/27 09:10:40;;;;;;;8.00;3.13;;;;;;;3.73;100.00;101878.19;5054873;28;20822;-69
2023/01/27 09:13:07;;;;;;;10.60;3.20;;;;;;;3.84;100.00;101890.03;5054491;28;20952;-67
2023/01/27 09:15:34;;;;;;;6.80;2.03;;;;;;;3.86;100.00;101893.31;5054529;28;20461;-68
2023/01/27 09:18:01;;;;;;;8.70;3.07;;;;;;;3.91;100.00;101895.31;5054557;28;20466;-68
2023/01/27 09:20:28;;;;;;;9.57;3.10;;;;;;;3.93;100.00;101895.91;5054252;28;20486;-68
2023/01/27 09:22:55;;;;;;;9.13;2.50;;;;;;;3.95;100.00;101904.56;5054618;28;20442;-68
2023/01/27 09:25:21;;;;;;;8.17;2.43;;;;;;;3.95;100.00;101907.22;5054468;28;20461;-66
2023/01/27 09:27:54;;;;;;;10.67;2.70;;;;;;;3.97;100.00;101918.53;5054512;28;20505;-68
2023/01/27 09:30:21;;;;;;;8.80;3.03;;;;;;;3.97;100.00;101905.94;5054180;28;20793;-68
2023/01/27 09:32:47;;;;;;;18.77;2.57;;;;;;;3.96;100.00;101903.50;5054339;28;20444;-68
2023/01/27 09:35:14;;;;;;;9.87;2.50;;;;;;;3.90;100.00;101907.91;5054017;28;20438;-70
2023/01/27 09:37:45;;;;;;;14.30;2.43;;;;;;;3.93;100.00;101906.63;5054312;28;20500;-69
2023/01/27 09:40:27;;;;;;;8.97;3.00;;;;;;;3.95;100.00;101909.91;5054250;28;20461;-68
2023/01/27 09:43:15;;;;;;;8.10;1.97;;;;;;;3.92;100.00;101913.84;5053913;28;20892;-68
2023/01/27 09:45:55;;;;;;;9.33;2.80;;;;;;;3.72;100.00;101913.28;5054181;28;20437;-71
2023/01/27 09:48:46;;;;;;;9.93;2.87;;;;;;;3.72;100.00;101919.44;5054264;28;20458;-68
2023/01/27 09:51:23;;;;;;;10.87;3.07;;;;;;;3.83;100.00;101919.75;5054143;28;20419;-68
2023/01/27 09:54:07;;;;;;;9.07;2.67;;;;;;;3.80;100.00;101916.44;5054153;28;20800;-69
2023/01/27 09:56:43;;;;;;;7.87;2.10;;;;;;;3.90;100.00;101923.19;5053960;28;20493;-68
2023/01/27 09:59:24;;;;;;;6.87;2.17;;;;;;;3.98;100.00;101922.84;5053639;28;20524;-68
2023/01/27 10:02:03;;;;;;;8.40;2.63;;;;;;;3.84;100.00;101926.72;5053915;28;20466;-68
2023/01/27 10:04:52;;;;;;;6.93;2.40;;;;;;;3.86;100.00;101940.75;5053513;28;20426;-68
2023/01/27 10:07:48;;;;;;;9.67;2.40;;;;;;;3.89;100.00;101930.38;5053765;28;20466;-69
2023/01/27 10:10:29;;;;;;;6.80;2.23;;;;;;;3.95;100.00;101934.84;5046642;28;20461;-68
2023/01/27 10:13:09;;;;;;;6.07;1.80;;;;;;;3.92;100.00;101923.75;5053723;28;20430;-68
2023/01/27 10:15:57;;;;;;;7.00;1.87;;;;;;;3.94;100.00;101925.19;5053282;28;20908;-68
2023/01/27 10:18:36;;;;;;;12.23;2.13;;;;;;;3.95;100.00;101929.50;5053212;28;20488;-68
2023/01/27 10:21:12;;;;;;;5.87;2.43;;;;;;;4.07;100.00;101921.50;5053566;28;20465;-68
2023/01/27 10:23:54;;;;;;;6.57;1.87;;;;;;;4.11;100.00;101933.41;5053546;28;20433;-69
2023/01/27 10:26:27;;;;;;;9.40;3.40;;;;;;;4.25;100.00;101936.75;5053394;28;20472;-68
2023/01/27 10:29:03;;;;;;;6.70;1.73;;;;;;;4.26;100.00;101933.88;5053419;28;20776;-69
2023/01/27 10:31:36;;;;;;;5.50;1.57;;;;;;;4.27;100.00;101942.72;5053420;28;20466;-68
2023/01/27 10:34:12;;;;;;;7.37;2.43;;;;;;;4.30;100.00;101935.06;5053251;28;20426;-68
2023/01/27 10:36:47;;;;;;;6.53;1.60;;;;;;;4.29;100.00;101941.47;5053233;28;20468;-69
2023/01/27 10:39:23;;;;;;;10.17;2.20;;;;;;;4.34;100.00;101948.84;5052656;28;20473;-68
2023/01/27 10:41:58;;;;;;;8.20;2.30;;;;;;;4.29;100.00;101944.16;5053374;28;20462;-68
2023/01/27 10:44:38;;;;;;;6.17;2.00;;;;;;;4.32;100.00;101936.69;5053309;28;20462;-68
2023/01/27 10:47:13;;;;;;;9.17;2.23;;;;;;;4.24;100.00;101948.53;5052802;28;20488;-68
2023/01/27 10:49:48;;;;;;;8.30;1.80;;;;;;;4.25;100.00;101942.13;5053022;28;20510;-69
2023/01/27 10:52:19;;;;;;;6.73;2.27;;;;;;;4.33;100.00;101938.31;5053388;28;20430;-68
2023/01/27 10:54:53;;;;;;;6.20;2.07;;;;;;;4.34;100.00;101945.31;5053040;28;20458;-67
2023/01/27 10:57:25;;;;;;;8.50;1.80;;;;;;;4.37;100.00;101942.19;5053015;28;20473;-68
2023/01/27 10:59:58;;;;;;;15.87;2.27;;;;;;;4.35;100.00;101939.75;5053028;28;20445;-68
2023/01/27 11:02:33;;;;;;;5.90;1.87;;;;;;;4.30;100.00;101945.78;5052682;28;20976;-68
2023/01/27 11:05:05;;;;;;;6.00;1.50;;;;;;;4.17;100.00;101940.59;5053271;28;20426;-67
2023/01/27 11:07:39;;;;;;;8.13;2.80;;;;;;;4.24;100.00;101944.00;5052932;28;20468;-67
2023/01/27 11:10:15;;;;;;;9.20;2.30;;;;;;;4.20;100.00;101950.84;5052961;28;20432;-67
2023/01/27 11:12:47;;;;;;;10.57;1.97;;;;;;;4.24;100.00;101944.00;5052573;28;20426;-68
2023/01/27 11:15:19;;;;;;;8.87;2.80;;;;;;;4.30;100.00;101947.66;5052598;28;20473;-68
2023/01/27 11:17:52;;;;;;;7.17;2.60;;;;;;;4.28;100.00;101957.78;5052835;28;20505;-69
2023/01/27 11:20:28;;;;;;;8.63;2.20;;;;;;;4.38;100.00;101949.19;5052574;28;20498;-69
2023/01/27 11:22:59;;;;;;;10.33;2.17;;;;;;;4.33;100.00;101939.13;5052500;28;20426;-70
2023/01/27 11:25:32;;;;;;;9.50;2.13;;;;;;;4.41;100.00;101941.50;5052720;28;20437;-69
2023/01/27 11:28:09;;;;;;;6.57;1.80;;;;;;;4.35;100.00;101936.25;5052668;28;20468;-67
2023/01/27 11:30:39;;;;;;;9.57;3.30;;;;;;;4.27;100.00;101940.88;5054535;28;20454;-67
2023/01/27 11:33:17;;;;;;;6.40;2.10;;;;;;;4.41;100.00;101935.34;5058103;28;20457;-67
2023/01/27 11:35:44;;;;;;;10.63;1.87;;;;;;;4.41;100.00;101938.00;5056559;28;20430;-66
2023/01/27 11:38:14;;;;;;;7.70;2.40;;;;;;;4.35;100.00;101930.88;5056351;28;20481;-66
2023/01/27 11:40:42;;;;;;;7.10;2.90;;;;;;;4.34;100.00;101934.59;5056653;28;20434;-65
2023/01/27 11:43:15;;;;;;;10.33;3.00;;;;;;;4.22;100.00;101926.50;5056473;28;20453;-66
2023/01/27 11:45:45;;;;;;;14.33;3.50;;;;;;;4.26;100.00;101931.19;5056351;28;20422;-67
2023/01/27 11:48:16;;;;;;;10.50;2.53;;;;;;;4.27;100.00;101935.50;5055959;28;20453;-66
2023/01/27 11:50:44;;;;;;;8.10;2.93;;;;;;;4.36;100.00;101936.00;5056388;28;20856;-66
2023/01/27 11:53:17;;;;;;;9.07;2.90;;;;;;;4.41;100.00;101936.16;5055980;28;20442;-68
2023/01/27 11:55:48;;;;;;;11.73;3.40;;;;;;;4.18;100.00;101941.41;5055858;28;20430;-67
2023/01/27 11:58:22;;;;;;;9.83;3.50;;;;;;;4.15;100.00;101937.28;5056284;28;20434;-67
2023/01/27 12:00:54;;;;;;;9.40;3.20;;;;;;;4.17;100.00;101940.59;5056185;28;20426;-69